Time;durP1;ratioP1;P1;durP2;ratioP2;P2;SDS_P1;SDS_P2;PMS_P1;PMS_P2;Temp;Humidity;BMP_temperature;BMP_pressure;BME280_temperature;BME280_humidity;BME280_pressure;Samples;Min_cycle;Max_cycle;Signal;HPM_P1;HPM_P2
2021/09/07 00:02:18;;;;;;;;;;;22.20;99.90;;;;;;5125641;27;19956;-75
2021/09/07 00:04:44;;;;;;;;;;;22.20;99.90;;;;;;5132351;27;19960;-75
2021/09/07 00:07:10;;;;;;;;;;;22.10;99.90;;;;;;5095057;27;19911;-75
2021/09/07 00:09:35;;;;;;;;;;;22.00;99.90;;;;;;5110903;27;20459;-75
2021/09/07 00:12:01;;;;;;;;;;;21.80;99.90;;;;;;5092637;28;19916;-75
2021/09/07 00:14:27;;;;;;;;;;;21.60;99.90;;;;;;5115803;27;20273;-76
2021/09/07 00:16:52;;;;;;;;;;;21.40;99.90;;;;;;5128098;27;19912;-75
2021/09/07 00:19:18;;;;;;;;;;;21.20;99.90;;;;;;5102736;27;20267;-75
2021/09/07 00:21:44;;;;;;;;;;;21.00;99.90;;;;;;5123194;27;19911;-75
2021/09/07 00:24:12;;;;;;;;;;;20.90;99.90;;;;;;5134979;27;19911;-75
2021/09/07 00:26:38;;;;;;;;;;;20.70;99.90;;;;;;5116429;27;20128;-75
2021/09/07 00:29:03;;;;;;;;;;;20.50;99.90;;;;;;5121338;27;19911;-75
2021/09/07 00:31:29;;;;;;;;;;;20.30;99.90;;;;;;5121956;27;19912;-75
2021/09/07 00:33:55;;;;;;;;;;;20.30;99.90;;;;;;5105564;28;19915;-75
2021/09/07 00:36:20;;;;;;;;;;;20.20;99.90;;;;;;5119943;27;20330;-75
2021/09/07 00:38:46;;;;;;;;;;;20.10;99.90;;;;;;5118544;27;19952;-75
2021/09/07 00:41:12;;;;;;;;;;;20.10;99.90;;;;;;5125204;27;19982;-75
2021/09/07 00:43:41;;;;;;;;;;;20.10;99.90;;;;;;5123519;27;20126;-75
2021/09/07 00:46:06;;;;;;;;;;;20.30;99.90;;;;;;5119389;27;19919;-75
2021/09/07 00:48:32;;;;;;;;;;;20.60;99.90;;;;;;5109955;27;19908;-75
2021/09/07 00:50:58;;;;;;;;;;;20.90;99.90;;;;;;5114230;27;20361;-75
2021/09/07 00:53:23;;;;;;;;;;;21.10;99.90;;;;;;5112169;27;19985;-75
2021/09/07 00:55:49;;;;;;;;;;;21.20;99.90;;;;;;5110813;27;19985;-75
2021/09/07 00:58:16;;;;;;;;;;;21.30;99.90;;;;;;5117568;27;20364;-75
2021/09/07 01:00:45;;;;;;;;;;;21.20;99.90;;;;;;5117099;27;19995;-75
2021/09/07 01:03:10;;;;;;;;;;;21.20;99.90;;;;;;5135606;27;19915;-75
2021/09/07 01:05:36;;;;;;;;;;;21.20;99.90;;;;;;5129127;27;19914;-75
2021/09/07 01:08:02;;;;;;;;;;;21.20;99.90;;;;;;5116177;27;19987;-74
2021/09/07 01:10:27;;;;;;;;;;;21.20;99.90;;;;;;5123714;27;19919;-74
2021/09/07 01:12:53;;;;;;;;;;;21.20;99.90;;;;;;5080001;28;19926;-75
2021/09/07 01:15:19;;;;;;;;;;;21.30;99.90;;;;;;5128455;27;19912;-75
2021/09/07 01:17:45;;;;;;;;;;;21.40;99.90;;;;;;5123277;27;20435;-75
2021/09/07 01:20:10;;;;;;;;;;;21.40;99.90;;;;;;5124972;27;19922;-74
2021/09/07 01:22:36;;;;;;;;;;;21.30;99.90;;;;;;5095934;28;19914;-74
2021/09/07 01:25:02;;;;;;;;;;;21.30;99.90;;;;;;5125284;27;19922;-74
2021/09/07 01:27:30;;;;;;;;;;;21.30;99.90;;;;;;5098963;27;20470;-74
2021/09/07 01:29:55;;;;;;;;;;;21.40;99.90;;;;;;5117344;27;20269;-74
2021/09/07 01:32:21;;;;;;;;;;;21.40;99.90;;;;;;5128485;27;20289;-75
2021/09/07 01:34:47;;;;;;;;;;;21.50;99.90;;;;;;5128759;27;19939;-75
2021/09/07 01:37:13;;;;;;;;;;;21.40;99.90;;;;;;5095704;28;19922;-75
2021/09/07 01:39:39;;;;;;;;;;;21.40;99.90;;;;;;5081650;28;19944;-74
2021/09/07 01:42:05;;;;;;;;;;;21.40;99.90;;;;;;5097126;27;20409;-74
2021/09/07 01:44:32;;;;;;;;;;;21.40;99.90;;;;;;5110584;27;19923;-74
2021/09/07 01:46:58;;;;;;;;;;;21.40;99.90;;;;;;5117886;28;19911;-74
2021/09/07 01:49:24;;;;;;;;;;;21.30;99.90;;;;;;5110425;28;19918;-74
2021/09/07 01:51:49;;;;;;;;;;;21.40;99.90;;;;;;5122172;28;20280;-74
2021/09/07 01:54:15;;;;;;;;;;;21.50;99.90;;;;;;5117593;28;20297;-75
2021/09/07 01:56:41;;;;;;;;;;;21.50;99.90;;;;;;5108079;28;20431;-75
2021/09/07 01:59:07;;;;;;;;;;;21.40;99.90;;;;;;5099697;28;19920;-75
2021/09/07 02:01:33;;;;;;;;;;;21.30;99.90;;;;;;5124824;28;19994;-75
2021/09/07 02:03:58;;;;;;;;;;;21.30;99.90;;;;;;5094098;28;19948;-75
2021/09/07 02:06:24;;;;;;;;;;;21.30;99.90;;;;;;5086720;28;19920;-75
2021/09/07 02:08:50;;;;;;;;;;;21.20;99.90;;;;;;5097337;27;19911;-74
2021/09/07 02:11:16;;;;;;;;;;;21.20;99.90;;;;;;5120836;27;20289;-75
2021/09/07 02:13:41;;;;;;;;;;;21.30;99.90;;;;;;5135291;27;19976;-75
2021/09/07 02:16:07;;;;;;;;;;;21.20;99.90;;;;;;5104356;27;19947;-75
2021/09/07 02:18:33;;;;;;;;;;;21.10;99.90;;;;;;5122809;27;20315;-75
2021/09/07 02:20:58;;;;;;;;;;;21.00;99.90;;;;;;5115745;27;19918;-75
2021/09/07 02:23:24;;;;;;;;;;;21.10;99.90;;;;;;5138106;27;19911;-75
2021/09/07 02:25:49;;;;;;;;;;;21.10;99.90;;;;;;5121918;27;20287;-76
2021/09/07 02:28:15;;;;;;;;;;;21.10;99.90;;;;;;5125903;27;19916;-75
2021/09/07 02:30:41;;;;;;;;;;;21.10;99.90;;;;;;5135826;27;19911;-75
2021/09/07 02:33:08;;;;;;;;;;;21.00;99.90;;;;;;5131322;27;19920;-75
2021/09/07 02:35:34;;;;;;;;;;;21.10;99.90;;;;;;5118150;27;19912;-75
2021/09/07 02:38:00;;;;;;;;;;;21.00;99.90;;;;;;5121295;27;19974;-75
2021/09/07 02:40:26;;;;;;;;;;;21.10;99.90;;;;;;5132221;27;19911;-75
2021/09/07 02:42:52;;;;;;;;;;;21.00;99.90;;;;;;5133140;27;19968;-75
2021/09/07 02:45:17;;;;;;;;;;;21.10;99.90;;;;;;5123521;27;19911;-75
2021/09/07 02:47:43;;;;;;;;;;;21.20;99.90;;;;;;5098482;27;19950;-76
2021/09/07 02:50:10;;;;;;;;;;;21.10;99.90;;;;;;5106022;27;19912;-75
2021/09/07 02:52:36;;;;;;;;;;;21.20;99.90;;;;;;5108439;27;19963;-75
2021/09/07 02:55:01;;;;;;;;;;;21.20;99.90;;;;;;5135646;27;19915;-75
2021/09/07 02:57:27;;;;;;;;;;;21.10;99.90;;;;;;5111634;28;20512;-75
2021/09/07 02:59:53;;;;;;;;;;;21.00;99.90;;;;;;5111192;27;19915;-75
2021/09/07 03:02:19;;;;;;;;;;;21.00;99.90;;;;;;5119709;27;19919;-75
2021/09/07 03:04:45;;;;;;;;;;;21.00;99.90;;;;;;5133443;27;19919;-75
2021/09/07 03:07:10;;;;;;;;;;;21.00;99.90;;;;;;5137300;27;19935;-75
2021/09/07 03:09:36;;;;;;;;;;;21.00;99.90;;;;;;5116663;27;20293;-75
2021/09/07 03:12:02;;;;;;;;;;;21.00;99.90;;;;;;5098048;27;20003;-75
2021/09/07 03:14:28;;;;;;;;;;;21.10;99.90;;;;;;5129162;27;20015;-75
2021/09/07 03:16:53;;;;;;;;;;;21.30;99.90;;;;;;5117837;27;20019;-75
2021/09/07 03:19:19;;;;;;;;;;;21.20;99.90;;;;;;5102472;27;20362;-75
2021/09/07 03:21:45;;;;;;;;;;;21.10;99.90;;;;;;5125934;27;19922;-75
2021/09/07 03:24:10;;;;;;;;;;;21.10;99.90;;;;;;5128632;27;19968;-75
2021/09/07 03:26:36;;;;;;;;;;;21.10;99.90;;;;;;5123932;27;20285;-75
2021/09/07 03:29:01;;;;;;;;;;;21.00;99.90;;;;;;5131244;27;19998;-75
2021/09/07 03:31:27;;;;;;;;;;;21.10;99.90;;;;;;5123426;27;19915;-75
2021/09/07 03:33:53;;;;;;;;;;;21.00;99.90;;;;;;5125254;27;19912;-75
2021/09/07 03:36:19;;;;;;;;;;;21.00;99.90;;;;;;5113101;27;19959;-75
2021/09/07 03:38:45;;;;;;;;;;;21.00;99.90;;;;;;5117254;27;19939;-75
2021/09/07 03:41:12;;;;;;;;;;;20.80;99.90;;;;;;5121599;27;19919;-75
2021/09/07 03:43:38;;;;;;;;;;;20.80;99.90;;;;;;5121043;27;19963;-75
2021/09/07 03:46:03;;;;;;;;;;;20.80;99.90;;;;;;5114132;27;19933;-75
2021/09/07 03:48:29;;;;;;;;;;;20.90;99.90;;;;;;5107524;27;19912;-75
2021/09/07 03:50:55;;;;;;;;;;;20.90;99.90;;;;;;5104742;27;20365;-75
2021/09/07 03:53:20;;;;;;;;;;;20.80;99.90;;;;;;5134872;27;19911;-76
2021/09/07 03:55:46;;;;;;;;;;;20.70;99.90;;;;;;5103323;27;19948;-75
2021/09/07 03:58:11;;;;;;;;;;;20.50;99.90;;;;;;5111134;27;20023;-75
2021/09/07 04:00:37;;;;;;;;;;;20.50;99.90;;;;;;5121951;27;19916;-75
2021/09/07 04:03:11;;;;;;;;;;;20.50;99.90;;;;;;5128614;27;19943;-75
2021/09/07 04:05:36;;;;;;;;;;;20.60;99.90;;;;;;5128966;27;19912;-75
2021/09/07 04:08:02;;;;;;;;;;;20.40;99.90;;;;;;5122139;27;19956;-75
2021/09/07 04:10:28;;;;;;;;;;;20.30;99.90;;;;;;5108672;27;20052;-74
2021/09/07 04:12:53;;;;;;;;;;;20.20;99.90;;;;;;5102198;27;19927;-76
2021/09/07 04:15:19;;;;;;;;;;;20.20;99.90;;;;;;5136415;27;19959;-75
2021/09/07 04:17:45;;;;;;;;;;;20.20;99.90;;;;;;5109910;27;20022;-75
2021/09/07 04:20:11;;;;;;;;;;;20.00;99.90;;;;;;5114118;27;20014;-75
2021/09/07 04:22:37;;;;;;;;;;;19.90;99.90;;;;;;5129289;27;20399;-75
2021/09/07 04:25:03;;;;;;;;;;;19.80;99.90;;;;;;5115892;27;19987;-75
2021/09/07 04:27:29;;;;;;;;;;;19.70;99.90;;;;;;5123805;27;19916;-74
2021/09/07 04:29:54;;;;;;;;;;;19.60;99.90;;;;;;5134668;27;19915;-75
2021/09/07 04:32:20;;;;;;;;;;;19.50;99.90;;;;;;5125528;27;19908;-74
2021/09/07 04:34:45;;;;;;;;;;;19.80;99.90;;;;;;5117697;27;19912;-74
2021/09/07 04:37:11;;;;;;;;;;;20.10;99.90;;;;;;5121394;27;19976;-74
2021/09/07 04:39:36;;;;;;;;;;;20.60;99.90;;;;;;5122487;27;19918;-74
2021/09/07 04:42:02;;;;;;;;;;;20.90;99.90;;;;;;5123495;27;19911;-74
2021/09/07 04:44:28;;;;;;;;;;;20.90;99.90;;;;;;5100171;28;19916;-74
2021/09/07 04:46:53;;;;;;;;;;;21.00;99.90;;;;;;5095331;27;20002;-74
2021/09/07 04:49:19;;;;;;;;;;;21.10;99.90;;;;;;5120646;27;19918;-73
2021/09/07 04:51:45;;;;;;;;;;;21.00;99.90;;;;;;5116607;27;19916;-76
2021/09/07 04:54:10;;;;;;;;;;;20.80;99.90;;;;;;5134373;27;19908;-79
2021/09/07 04:56:36;;;;;;;;;;;20.60;99.90;;;;;;5116745;27;19999;-77
2021/09/07 04:59:02;;;;;;;;;;;20.60;99.90;;;;;;5085771;28;19939;-77
2021/09/07 05:01:27;;;;;;;;;;;20.50;99.90;;;;;;5119294;27;20322;-76
2021/09/07 05:03:53;;;;;;;;;;;20.60;99.90;;;;;;5123533;27;19916;-79
2021/09/07 05:06:18;;;;;;;;;;;20.60;99.90;;;;;;5116934;27;19912;-77
2021/09/07 05:08:44;;;;;;;;;;;20.50;99.90;;;;;;5120424;27;19916;-77
2021/09/07 05:11:10;;;;;;;;;;;20.50;99.90;;;;;;5114294;27;19911;-77
2021/09/07 05:13:35;;;;;;;;;;;20.50;99.90;;;;;;5119562;27;19921;-77
2021/09/07 05:16:01;;;;;;;;;;;20.50;99.90;;;;;;5110062;27;19927;-77
2021/09/07 05:18:26;;;;;;;;;;;20.60;99.90;;;;;;5103590;27;19964;-76
2021/09/07 05:20:52;;;;;;;;;;;20.60;99.90;;;;;;5109402;27;20001;-76
2021/09/07 05:23:18;;;;;;;;;;;20.50;99.90;;;;;;5123121;27;19915;-77
2021/09/07 05:25:44;;;;;;;;;;;20.50;99.90;;;;;;5108944;27;19916;-75
2021/09/07 05:28:09;;;;;;;;;;;20.50;99.90;;;;;;5123364;27;19911;-77
2021/09/07 05:30:35;;;;;;;;;;;20.60;99.90;;;;;;5116060;27;20404;-77
2021/09/07 05:33:01;;;;;;;;;;;20.60;99.90;;;;;;5104262;28;19911;-77
2021/09/07 05:35:27;;;;;;;;;;;20.70;99.90;;;;;;5102240;28;19916;-77
2021/09/07 05:37:53;;;;;;;;;;;20.80;99.90;;;;;;5088930;28;19923;-77
2021/09/07 05:40:18;;;;;;;;;;;20.70;99.90;;;;;;5108984;28;19957;-77
2021/09/07 05:42:44;;;;;;;;;;;20.80;99.90;;;;;;5108998;28;19926;-77
2021/09/07 05:45:14;;;;;;;;;;;20.80;99.90;;;;;;5110118;27;19916;-78
2021/09/07 05:47:40;;;;;;;;;;;20.80;99.90;;;;;;5114892;28;20373;-80
2021/09/07 05:50:06;;;;;;;;;;;20.90;99.90;;;;;;5108782;28;20558;-80
2021/09/07 05:52:32;;;;;;;;;;;21.00;99.90;;;;;;5075192;28;19920;-79
2021/09/07 05:54:57;;;;;;;;;;;21.00;99.90;;;;;;5126194;28;20004;-77
2021/09/07 05:57:23;;;;;;;;;;;21.10;99.90;;;;;;5107036;28;19935;-78
2021/09/07 05:59:49;;;;;;;;;;;21.10;99.90;;;;;;5107975;28;19923;-78
2021/09/07 06:02:14;;;;;;;;;;;21.10;99.90;;;;;;5112622;28;19908;-78
2021/09/07 06:04:40;;;;;;;;;;;21.20;99.90;;;;;;5110502;28;20016;-79
2021/09/07 06:07:06;;;;;;;;;;;21.20;99.90;;;;;;5110045;28;19915;-77
2021/09/07 06:09:31;;;;;;;;;;;21.40;99.90;;;;;;5108729;28;19972;-78
2021/09/07 06:11:57;;;;;;;;;;;21.50;99.90;;;;;;5091056;28;19918;-78
2021/09/07 06:14:22;;;;;;;;;;;21.50;99.90;;;;;;5108762;28;19908;-78
2021/09/07 06:16:48;;;;;;;;;;;21.70;99.90;;;;;;5110760;28;20460;-78
2021/09/07 06:19:13;;;;;;;;;;;21.80;99.90;;;;;;5132931;28;19958;-78
2021/09/07 06:21:39;;;;;;;;;;;21.90;99.90;;;;;;5125912;28;20380;-79
2021/09/07 06:24:05;;;;;;;;;;;21.90;99.90;;;;;;5123507;28;20014;-77
2021/09/07 06:26:30;;;;;;;;;;;21.90;99.90;;;;;;5112482;28;19912;-78
2021/09/07 06:28:56;;;;;;;;;;;22.00;99.90;;;;;;5124503;28;20372;-75
2021/09/07 06:31:21;;;;;;;;;;;21.90;99.90;;;;;;5131595;28;20429;-75
2021/09/07 06:33:47;;;;;;;;;;;21.90;99.90;;;;;;5134116;28;19930;-75
2021/09/07 06:36:13;;;;;;;;;;;22.00;99.90;;;;;;5111254;28;20008;-76
2021/09/07 06:38:38;;;;;;;;;;;22.00;99.90;;;;;;5130829;28;19929;-75
2021/09/07 06:41:07;;;;;;;;;;;22.10;99.90;;;;;;5123284;28;20383;-75
2021/09/07 06:43:33;;;;;;;;;;;22.20;99.90;;;;;;5114126;28;19916;-75
2021/09/07 06:45:58;;;;;;;;;;;22.20;99.90;;;;;;5111340;28;19911;-75
2021/09/07 06:48:24;;;;;;;;;;;22.30;99.90;;;;;;5127505;28;20007;-75
2021/09/07 06:50:49;;;;;;;;;;;22.40;99.90;;;;;;5117784;28;19947;-76
2021/09/07 06:53:15;;;;;;;;;;;22.40;99.90;;;;;;5110656;28;19919;-75
2021/09/07 06:55:41;;;;;;;;;;;22.30;99.90;;;;;;5114340;27;20342;-75
2021/09/07 06:58:06;;;;;;;;;;;22.30;99.90;;;;;;5099398;27;20300;-76
2021/09/07 07:00:32;;;;;;;;;;;22.40;99.90;;;;;;5126095;27;19912;-76
2021/09/07 07:02:57;;;;;;;;;;;22.50;99.90;;;;;;5137046;27;19907;-75
2021/09/07 07:05:25;;;;;;;;;;;22.60;99.90;;;;;;5119003;27;19912;-76
2021/09/07 07:07:51;;;;;;;;;;;22.60;99.90;;;;;;5125632;27;19991;-77
2021/09/07 07:10:16;;;;;;;;;;;22.70;99.90;;;;;;5131212;27;19908;-76
2021/09/07 07:12:42;;;;;;;;;;;22.70;99.90;;;;;;5125399;27;20364;-75
2021/09/07 07:15:08;;;;;;;;;;;22.80;99.90;;;;;;5111269;28;19911;-75
2021/09/07 07:17:34;;;;;;;;;;;22.90;99.90;;;;;;5124627;27;20025;-75
2021/09/07 07:19:59;;;;;;;;;;;23.00;99.90;;;;;;5130785;27;19912;-75
2021/09/07 07:22:25;;;;;;;;;;;23.00;99.90;;;;;;5117926;27;19911;-76
2021/09/07 07:24:51;;;;;;;;;;;23.10;99.90;;;;;;5129107;27;19924;-76
2021/09/07 07:27:17;;;;;;;;;;;23.20;99.90;;;;;;5106400;28;19961;-76
2021/09/07 07:29:43;;;;;;;;;;;23.40;99.90;;;;;;5130335;27;20456;-76
2021/09/07 07:32:08;;;;;;;;;;;23.40;99.90;;;;;;5135217;27;19912;-75
2021/09/07 07:34:34;;;;;;;;;;;23.60;99.90;;;;;;5133535;27;20253;-76
2021/09/07 07:37:01;;;;;;;;;;;23.60;99.90;;;;;;5123132;27;19958;-76
2021/09/07 07:39:27;;;;;;;;;;;23.80;99.90;;;;;;5136184;27;20383;-76
2021/09/07 07:41:53;;;;;;;;;;;23.90;99.90;;;;;;5121898;27;20099;-76
2021/09/07 07:44:19;;;;;;;;;;;24.00;99.90;;;;;;5097379;28;19995;-76
2021/09/07 07:46:44;;;;;;;;;;;24.10;99.90;;;;;;5114457;27;20003;-77
2021/09/07 07:49:10;;;;;;;;;;;24.20;99.90;;;;;;5136234;27;20436;-76
2021/09/07 07:51:35;;;;;;;;;;;24.30;99.90;;;;;;5121471;27;19942;-75
2021/09/07 07:54:01;;;;;;;;;;;24.40;99.90;;;;;;5124360;27;19912;-77
2021/09/07 07:56:27;;;;;;;;;;;24.40;99.90;;;;;;5114593;27;19912;-76
2021/09/07 07:58:52;;;;;;;;;;;24.50;99.90;;;;;;5117433;27;20370;-78
2021/09/07 08:01:18;;;;;;;;;;;24.50;99.90;;;;;;5119826;27;20307;-77
2021/09/07 08:03:47;;;;;;;;;;;24.60;99.90;;;;;;5135599;27;20032;-78
2021/09/07 08:06:13;;;;;;;;;;;24.70;99.90;;;;;;5115341;27;19911;-77
2021/09/07 08:08:38;;;;;;;;;;;24.70;99.90;;;;;;5132240;27;19951;-75
2021/09/07 08:11:04;;;;;;;;;;;24.80;99.90;;;;;;5116737;27;20314;-76
2021/09/07 08:13:29;;;;;;;;;;;24.80;99.90;;;;;;5121625;27;20484;-76
2021/09/07 08:15:55;;;;;;;;;;;24.80;99.90;;;;;;5130370;27;19916;-76
2021/09/07 08:18:21;;;;;;;;;;;24.80;99.90;;;;;;5135269;27;20380;-76
2021/09/07 08:20:49;;;;;;;;;;;24.90;99.90;;;;;;5106737;27;20242;-76
2021/09/07 08:23:15;;;;;;;;;;;24.90;99.90;;;;;;5127172;27;19945;-78
2021/09/07 08:25:40;;;;;;;;;;;25.00;99.90;;;;;;5121052;27;19912;-77
2021/09/07 08:28:06;;;;;;;;;;;25.00;99.90;;;;;;5114261;27;20432;-76
2021/09/07 08:30:32;;;;;;;;;;;25.00;99.90;;;;;;5128004;27;19912;-76
2021/09/07 08:32:58;;;;;;;;;;;25.00;99.90;;;;;;5120061;27;20288;-76
2021/09/07 08:35:23;;;;;;;;;;;25.00;99.90;;;;;;5130433;27;19960;-76
2021/09/07 08:37:49;;;;;;;;;;;25.00;99.90;;;;;;5110673;28;20025;-75
2021/09/07 08:40:15;;;;;;;;;;;25.10;99.90;;;;;;5098778;28;19945;-76
2021/09/07 08:42:40;;;;;;;;;;;25.10;99.90;;;;;;5119116;27;19912;-76
2021/09/07 08:45:08;;;;;;;;;;;25.10;99.90;;;;;;5131218;27;20302;-76
2021/09/07 08:47:34;;;;;;;;;;;25.10;99.90;;;;;;5135089;27;19915;-76
2021/09/07 08:50:02;;;;;;;;;;;25.20;99.90;;;;;;5119731;27;19920;-76
2021/09/07 08:52:27;;;;;;;;;;;25.30;99.90;;;;;;5115837;27;20373;-76
2021/09/07 08:54:53;;;;;;;;;;;25.20;99.90;;;;;;5134179;27;19960;-76
2021/09/07 08:57:18;;;;;;;;;;;25.30;99.90;;;;;;5120674;27;19974;-76
2021/09/07 08:59:53;;;;;;;;;;;25.40;99.90;;;;;;5119626;27;19912;-76
2021/09/07 09:02:19;;;;;;;;;;;25.60;99.90;;;;;;5110831;27;19920;-77
2021/09/07 09:04:47;;;;;;;;;;;25.60;99.80;;;;;;5124253;27;19927;-75
2021/09/07 09:07:18;;;;;;;;;;;25.80;99.60;;;;;;5112968;27;19912;-76
2021/09/07 09:09:45;;;;;;;;;;;25.80;99.90;;;;;;5130581;27;19981;-75
2021/09/07 09:12:11;;;;;;;;;;;25.90;99.40;;;;;;5134978;27;19947;-76
2021/09/07 09:14:38;;;;;;;;;;;25.90;99.60;;;;;;5134338;27;19907;-79
2021/09/07 09:17:24;;;;;;;;;;;25.90;99.40;;;;;;5140703;27;19907;-83
2021/09/07 09:19:50;;;;;;;;;;;26.10;98.90;;;;;;5132606;27;20014;-80
2021/09/07 09:22:15;;;;;;;;;;;26.20;98.30;;;;;;5101033;28;20007;-79
2021/09/07 09:24:41;;;;;;;;;;;26.10;97.20;;;;;;5132756;27;19969;-80
2021/09/07 09:27:07;;;;;;;;;;;26.10;97.50;;;;;;5130148;27;19911;-79
2021/09/07 09:29:34;;;;;;;;;;;26.20;97.10;;;;;;5126890;27;19918;-81
2021/09/07 09:32:03;;;;;;;;;;;26.10;97.20;;;;;;5126938;27;19915;-79
2021/09/07 09:34:29;;;;;;;;;;;26.20;96.90;;;;;;5140622;27;19908;-79
2021/09/07 09:36:58;;;;;;;;;;;26.40;96.00;;;;;;5129059;27;19922;-81
2021/09/07 09:39:43;;;;;;;;;;;26.40;95.10;;;;;;5136366;27;19918;-79
2021/09/07 09:42:10;;;;;;;;;;;26.50;94.80;;;;;;5135794;27;20008;-79
2021/09/07 09:44:36;;;;;;;;;;;26.60;95.50;;;;;;5133579;27;19937;-79
2021/09/07 09:47:02;;;;;;;;;;;26.70;95.80;;;;;;5132748;27;20407;-79
2021/09/07 09:49:28;;;;;;;;;;;26.70;95.70;;;;;;5123296;27;19918;-79
2021/09/07 09:52:01;;;;;;;;;;;26.90;94.90;;;;;;5125329;27;19942;-78
2021/09/07 09:54:27;;;;;;;;;;;27.00;95.20;;;;;;5136091;27;19912;-79
2021/09/07 09:56:53;;;;;;;;;;;27.10;94.40;;;;;;5123790;28;19965;-79
2021/09/07 09:59:20;;;;;;;;;;;27.00;94.50;;;;;;5117536;28;19907;-81
2021/09/07 10:01:45;;;;;;;;;;;27.10;94.20;;;;;;5120947;28;20068;-79
2021/09/07 10:04:11;;;;;;;;;;;27.10;94.10;;;;;;5090205;28;19951;-79
2021/09/07 10:06:37;;;;;;;;;;;27.20;94.70;;;;;;5132967;28;20001;-79
2021/09/07 10:09:03;;;;;;;;;;;27.30;94.70;;;;;;5140473;28;19908;-79
2021/09/07 10:11:30;;;;;;;;;;;27.20;94.90;;;;;;5112272;28;19912;-80
2021/09/07 10:13:58;;;;;;;;;;;27.30;95.40;;;;;;5099589;28;20291;-79
2021/09/07 10:19:39;;;;;;;;;;;27.50;94.70;;;;;;5085997;28;19916;-80
2021/09/07 10:24:54;;;;;;;;;;;27.30;93.30;;;;;;5127569;28;19923;-77
2021/09/07 10:27:19;;;;;;;;;;;27.20;94.30;;;;;;5118699;28;20658;-77
2021/09/07 10:29:45;;;;;;;;;;;27.30;94.20;;;;;;5124152;27;19908;-77
2021/09/07 10:32:21;;;;;;;;;;;27.30;94.30;;;;;;5121622;27;19908;-77
2021/09/07 10:35:06;;;;;;;;;;;27.50;94.40;;;;;;5132772;27;19920;-77
2021/09/07 10:37:50;;;;;;;;;;;27.50;94.40;;;;;;5127968;27;19942;-77
2021/09/07 10:40:34;;;;;;;;;;;27.60;94.20;;;;;;5093589;28;19951;-77
2021/09/07 10:43:00;;;;;;;;;;;27.70;94.20;;;;;;5136298;27;19995;-77
2021/09/07 10:45:27;;;;;;;;;;;27.80;93.50;;;;;;5136280;27;19951;-77
2021/09/07 10:47:55;;;;;;;;;;;28.00;93.30;;;;;;5121139;27;20384;-78
2021/09/07 10:50:21;;;;;;;;;;;28.10;93.40;;;;;;5124078;27;19958;-77
2021/09/07 10:52:46;;;;;;;;;;;28.20;93.40;;;;;;5131534;27;19916;-77
2021/09/07 10:55:16;;;;;;;;;;;28.00;93.10;;;;;;5110720;27;19957;-78
2021/09/07 10:57:46;;;;;;;;;;;27.70;93.10;;;;;;5124624;27;19919;-78
2021/09/07 11:00:21;;;;;;;;;;;27.60;93.50;;;;;;5128930;27;19915;-77
2021/09/07 11:02:56;;;;;;;;;;;27.60;93.80;;;;;;5122603;27;19911;-77
2021/09/07 11:05:41;;;;;;;;;;;27.70;93.80;;;;;;5125363;27;20365;-76
2021/09/07 11:08:07;;;;;;;;;;;27.80;92.20;;;;;;5124744;27;19919;-77
2021/09/07 11:10:34;;;;;;;;;;;28.00;92.40;;;;;;5099180;27;20519;-77
2021/09/07 11:13:03;;;;;;;;;;;28.20;91.80;;;;;;5127938;27;19908;-77
2021/09/07 11:15:31;;;;;;;;;;;28.30;91.20;;;;;;5133129;27;19974;-79
2021/09/07 11:17:58;;;;;;;;;;;28.40;91.20;;;;;;5109648;27;20014;-78
2021/09/07 11:20:26;;;;;;;;;;;28.30;91.50;;;;;;5129742;27;20024;-77
2021/09/07 11:22:53;;;;;;;;;;;28.10;91.70;;;;;;5128480;27;19949;-78
2021/09/07 11:25:20;;;;;;;;;;;27.90;92.00;;;;;;5129399;27;19915;-77
2021/09/07 11:27:52;;;;;;;;;;;27.80;91.90;;;;;;5101420;27;20355;-79
2021/09/07 11:30:27;;;;;;;;;;;27.70;91.90;;;;;;5133227;27;19934;-77
2021/09/07 11:33:22;;;;;;;;;;;27.80;92.20;;;;;;5128966;27;19968;-77
2021/09/07 11:35:48;;;;;;;;;;;28.00;92.10;;;;;;5106584;27;19912;-77
2021/09/07 11:38:15;;;;;;;;;;;28.00;91.10;;;;;;5095672;27;19923;-79
2021/09/07 11:40:46;;;;;;;;;;;27.90;90.90;;;;;;5126268;27;19936;-77
2021/09/07 11:43:13;;;;;;;;;;;27.90;90.70;;;;;;5137687;27;20364;-77
2021/09/07 11:45:39;;;;;;;;;;;27.80;88.90;;;;;;5135990;27;19918;-77
2021/09/07 11:48:06;;;;;;;;;;;27.70;89.50;;;;;;5137941;27;20276;-77
2021/09/07 11:50:32;;;;;;;;;;;27.70;85.50;;;;;;5115744;27;20030;-77
2021/09/07 11:52:59;;;;;;;;;;;27.50;85.00;;;;;;5076110;27;19915;-77
2021/09/07 11:55:37;;;;;;;;;;;27.50;87.10;;;;;;5124435;27;19911;-77
2021/09/07 11:58:03;;;;;;;;;;;27.60;88.20;;;;;;5115054;27;19911;-77
2021/09/07 12:00:29;;;;;;;;;;;27.80;88.30;;;;;;5127408;27;19918;-78
2021/09/07 12:03:14;;;;;;;;;;;28.00;89.20;;;;;;5136127;27;20430;-77
2021/09/07 12:05:53;;;;;;;;;;;28.10;88.20;;;;;;5135459;27;19940;-77
2021/09/07 12:08:18;;;;;;;;;;;28.00;86.80;;;;;;5132730;27;19912;-77
2021/09/07 12:10:52;;;;;;;;;;;27.80;87.60;;;;;;5111106;28;19964;-77
2021/09/07 12:13:19;;;;;;;;;;;27.70;87.50;;;;;;5115151;27;20408;-77
2021/09/07 12:15:44;;;;;;;;;;;27.60;88.40;;;;;;5123142;27;19912;-77
2021/09/07 12:18:24;;;;;;;;;;;27.60;88.00;;;;;;5098699;28;19915;-77
2021/09/07 12:20:50;;;;;;;;;;;27.80;87.50;;;;;;5120316;27;19912;-77
2021/09/07 12:23:34;;;;;;;;;;;27.90;87.80;;;;;;5129878;27;19983;-77
2021/09/07 12:26:02;;;;;;;;;;;27.90;88.50;;;;;;5119605;27;20273;-77
2021/09/07 12:28:28;;;;;;;;;;;27.90;89.20;;;;;;5111490;27;19923;-77
2021/09/07 12:31:29;;;;;;;;;;;27.90;89.00;;;;;;5131785;27;19919;-77
2021/09/07 12:33:55;;;;;;;;;;;28.00;89.20;;;;;;5038172;28;19913;-77
2021/09/07 12:36:22;;;;;;;;;;;28.10;88.70;;;;;;5108653;27;19927;-77
2021/09/07 12:38:48;;;;;;;;;;;28.40;89.20;;;;;;5123282;27;20029;-77
2021/09/07 12:41:16;;;;;;;;;;;28.60;88.50;;;;;;5137442;27;19983;-77
2021/09/07 12:43:44;;;;;;;;;;;28.90;88.20;;;;;;5125371;27;19923;-78
2021/09/07 12:46:12;;;;;;;;;;;29.20;87.50;;;;;;5127027;27;19915;-78
2021/09/07 12:48:39;;;;;;;;;;;29.40;86.30;;;;;;5119746;27;20338;-81
2021/09/07 12:51:05;;;;;;;;;;;29.60;83.00;;;;;;5121393;27;20365;-78
2021/09/07 12:53:42;;;;;;;;;;;29.30;83.80;;;;;;5118869;27;19965;-77
2021/09/07 12:56:09;;;;;;;;;;;29.40;84.00;;;;;;5096429;28;19907;-77
2021/09/07 12:58:36;;;;;;;;;;;29.40;83.30;;;;;;5124766;27;19918;-77
2021/09/07 13:01:03;;;;;;;;;;;29.70;82.70;;;;;;5130415;27;20436;-78
2021/09/07 13:03:29;;;;;;;;;;;29.60;83.40;;;;;;5129156;27;19992;-77
2021/09/07 13:05:55;;;;;;;;;;;29.50;82.80;;;;;;5110076;27;19912;-77
2021/09/07 13:08:20;;;;;;;;;;;29.40;83.30;;;;;;5127744;27;20007;-77
2021/09/07 13:10:48;;;;;;;;;;;29.60;82.80;;;;;;5121894;27;19994;-77
2021/09/07 13:13:13;;;;;;;;;;;29.50;83.20;;;;;;5114300;27;20436;-77
2021/09/07 13:15:40;;;;;;;;;;;29.50;83.40;;;;;;5121186;27;19955;-78
2021/09/07 13:18:06;;;;;;;;;;;29.40;83.50;;;;;;5124633;27;19915;-77
2021/09/07 13:20:32;;;;;;;;;;;28.90;85.00;;;;;;5119610;27;19951;-77
2021/09/07 13:22:57;;;;;;;;;;;28.60;86.40;;;;;;5114875;28;19919;-77
2021/09/07 13:25:23;;;;;;;;;;;28.60;87.20;;;;;;5116564;27;19960;-77
2021/09/07 13:27:49;;;;;;;;;;;28.60;85.60;;;;;;5114188;27;19911;-77
2021/09/07 13:30:14;;;;;;;;;;;28.90;85.20;;;;;;5119923;27;19955;-77
2021/09/07 13:32:40;;;;;;;;;;;28.80;84.10;;;;;;5120722;27;19916;-77
2021/09/07 13:35:05;;;;;;;;;;;28.70;85.00;;;;;;5128762;27;19916;-77
2021/09/07 13:37:31;;;;;;;;;;;28.70;83.20;;;;;;5136093;27;20258;-77
2021/09/07 13:39:57;;;;;;;;;;;28.70;83.60;;;;;;5128689;27;20380;-77
2021/09/07 13:42:22;;;;;;;;;;;28.90;84.60;;;;;;5134929;27;20384;-77
2021/09/07 13:44:48;;;;;;;;;;;29.30;82.90;;;;;;5108323;28;19955;-77
2021/09/07 13:47:14;;;;;;;;;;;29.00;80.20;;;;;;5136598;27;20423;-77
2021/09/07 13:49:39;;;;;;;;;;;29.00;81.60;;;;;;5111501;27;19912;-77
2021/09/07 13:52:05;;;;;;;;;;;29.00;81.60;;;;;;5087176;28;19970;-77
2021/09/07 13:54:33;;;;;;;;;;;29.00;80.70;;;;;;5131523;27;19920;-77
2021/09/07 13:56:59;;;;;;;;;;;29.00;80.80;;;;;;5117091;28;19918;-77
2021/09/07 13:59:25;;;;;;;;;;;29.40;80.20;;;;;;5115209;28;19912;-77
2021/09/07 14:01:51;;;;;;;;;;;29.60;81.30;;;;;;5133443;28;19919;-77
2021/09/07 14:04:18;;;;;;;;;;;29.70;81.80;;;;;;5140117;27;19918;-77
2021/09/07 14:06:43;;;;;;;;;;;29.90;82.50;;;;;;5135195;27;19922;-77
2021/09/07 14:09:09;;;;;;;;;;;29.90;82.80;;;;;;5139718;27;19911;-78
2021/09/07 14:11:35;;;;;;;;;;;29.50;82.80;;;;;;5134673;27;19960;-77
2021/09/07 14:14:00;;;;;;;;;;;29.20;83.80;;;;;;5139368;27;20388;-77
2021/09/07 14:16:26;;;;;;;;;;;29.00;84.30;;;;;;5121045;28;19923;-77
2021/09/07 14:18:52;;;;;;;;;;;28.80;84.40;;;;;;5123268;27;19920;-77
2021/09/07 14:21:17;;;;;;;;;;;28.90;85.10;;;;;;5127810;27;19911;-77